sensor_id;sensor_type;location;lat;lon;timestamp;pressure;altitude;pressure_sealevel;temperature;humidity
65718;BME280;52445;52.466;-1.016;2023-07-29T00:01:22;99035.75;;;18.77;64.58
65718;BME280;52445;52.466;-1.016;2023-07-29T00:03:49;99034.38;;;18.70;64.69
65718;BME280;52445;52.466;-1.016;2023-07-29T00:06:15;99031.84;;;18.68;64.55
65718;BME280;52445;52.466;-1.016;2023-07-29T00:08:42;99027.63;;;18.66;64.38
65718;BME280;52445;52.466;-1.016;2023-07-29T00:11:08;99032.19;;;18.62;64.69
65718;BME280;52445;52.466;-1.016;2023-07-29T00:13:35;99023.53;;;18.60;64.15
65718;BME280;52445;52.466;-1.016;2023-07-29T00:16:02;99028.13;;;18.56;64.73
65718;BME280;52445;52.466;-1.016;2023-07-29T00:18:28;99023.88;;;18.54;64.83
65718;BME280;52445;52.466;-1.016;2023-07-29T00:20:55;99030.97;;;18.52;65.23
65718;BME280;52445;52.466;-1.016;2023-07-29T00:23:22;99028.56;;;18.47;64.23
65718;BME280;52445;52.466;-1.016;2023-07-29T00:25:49;99027.91;;;18.43;64.82
65718;BME280;52445;52.466;-1.016;2023-07-29T00:28:19;99034.97;;;18.41;64.94
65718;BME280;52445;52.466;-1.016;2023-07-29T00:30:49;99022.81;;;18.40;64.98
65718;BME280;52445;52.466;-1.016;2023-07-29T00:33:16;99024.75;;;18.36;65.01
65718;BME280;52445;52.466;-1.016;2023-07-29T00:35:43;99024.84;;;18.35;64.77
65718;BME280;52445;52.466;-1.016;2023-07-29T00:38:09;99026.66;;;18.33;64.73
65718;BME280;52445;52.466;-1.016;2023-07-29T00:40:36;99033.78;;;18.31;65.05
65718;BME280;52445;52.466;-1.016;2023-07-29T00:43:03;99028.69;;;18.28;64.93
65718;BME280;52445;52.466;-1.016;2023-07-29T00:45:32;99023.44;;;18.28;65.44
65718;BME280;52445;52.466;-1.016;2023-07-29T00:47:59;99035.78;;;18.26;65.02
65718;BME280;52445;52.466;-1.016;2023-07-29T00:50:28;99042.03;;;18.23;65.29
65718;BME280;52445;52.466;-1.016;2023-07-29T00:52:56;99031.69;;;18.20;65.01
65718;BME280;52445;52.466;-1.016;2023-07-29T00:55:23;99035.31;;;18.17;65.47
65718;BME280;52445;52.466;-1.016;2023-07-29T00:57:51;99040.63;;;18.16;65.58
65718;BME280;52445;52.466;-1.016;2023-07-29T01:00:21;99038.25;;;18.11;65.66
65718;BME280;52445;52.466;-1.016;2023-07-29T01:02:49;99033.09;;;18.09;65.67
65718;BME280;52445;52.466;-1.016;2023-07-29T01:05:20;99032.28;;;18.07;65.63
65718;BME280;52445;52.466;-1.016;2023-07-29T01:13:44;99031.00;;;17.98;65.60
65718;BME280;52445;52.466;-1.016;2023-07-29T01:16:21;99027.19;;;18.04;65.85
65718;BME280;52445;52.466;-1.016;2023-07-29T01:18:52;99028.06;;;18.05;65.39
65718;BME280;52445;52.466;-1.016;2023-07-29T01:21:21;99022.81;;;18.05;65.92
65718;BME280;52445;52.466;-1.016;2023-07-29T01:23:52;99026.28;;;18.05;65.81
65718;BME280;52445;52.466;-1.016;2023-07-29T01:26:19;99021.13;;;18.04;65.40
65718;BME280;52445;52.466;-1.016;2023-07-29T01:28:46;99021.94;;;18.04;66.29
65718;BME280;52445;52.466;-1.016;2023-07-29T01:31:23;99017.72;;;18.02;66.01
65718;BME280;52445;52.466;-1.016;2023-07-29T01:33:57;99015.88;;;18.04;65.66
65718;BME280;52445;52.466;-1.016;2023-07-29T01:36:28;99017.72;;;18.02;65.94
65718;BME280;52445;52.466;-1.016;2023-07-29T01:38:57;99017.91;;;17.98;65.51
65718;BME280;52445;52.466;-1.016;2023-07-29T01:41:24;99010.19;;;17.95;65.72
65718;BME280;52445;52.466;-1.016;2023-07-29T01:43:52;99003.22;;;17.94;66.12
65718;BME280;52445;52.466;-1.016;2023-07-29T01:46:20;98998.94;;;17.93;66.36
65718;BME280;52445;52.466;-1.016;2023-07-29T01:48:46;99006.03;;;17.91;66.41
65718;BME280;52445;52.466;-1.016;2023-07-29T01:51:13;98997.53;;;17.86;65.89
65718;BME280;52445;52.466;-1.016;2023-07-29T01:53:40;99002.00;;;17.84;66.03
65718;BME280;52445;52.466;-1.016;2023-07-29T01:56:06;99002.16;;;17.81;65.99
65718;BME280;52445;52.466;-1.016;2023-07-29T01:58:33;98997.84;;;17.80;66.09
65718;BME280;52445;52.466;-1.016;2023-07-29T02:01:00;99004.00;;;17.79;66.73
65718;BME280;52445;52.466;-1.016;2023-07-29T02:03:26;99003.25;;;17.77;66.61
65718;BME280;52445;52.466;-1.016;2023-07-29T02:05:53;98996.31;;;17.76;66.20
65718;BME280;52445;52.466;-1.016;2023-07-29T02:08:20;99001.56;;;17.76;66.56
65718;BME280;52445;52.466;-1.016;2023-07-29T02:10:46;99005.94;;;17.75;66.32
65718;BME280;52445;52.466;-1.016;2023-07-29T02:13:15;99000.84;;;17.72;66.74
65718;BME280;52445;52.466;-1.016;2023-07-29T02:15:42;99001.69;;;17.72;66.37
65718;BME280;52445;52.466;-1.016;2023-07-29T02:18:08;99003.53;;;17.70;66.84
65718;BME280;52445;52.466;-1.016;2023-07-29T02:20:35;98998.38;;;17.69;66.69
65718;BME280;52445;52.466;-1.016;2023-07-29T02:23:02;98991.50;;;17.66;66.60
65718;BME280;52445;52.466;-1.016;2023-07-29T02:25:28;98982.03;;;17.64;65.95
65718;BME280;52445;52.466;-1.016;2023-07-29T02:27:55;98984.75;;;17.62;66.18
65718;BME280;52445;52.466;-1.016;2023-07-29T02:30:22;98988.28;;;17.61;67.00
65718;BME280;52445;52.466;-1.016;2023-07-29T02:32:48;98985.81;;;17.58;67.09
65718;BME280;52445;52.466;-1.016;2023-07-29T02:35:15;98990.28;;;17.56;66.06
65718;BME280;52445;52.466;-1.016;2023-07-29T02:37:42;98996.50;;;17.53;66.70
65718;BME280;52445;52.466;-1.016;2023-07-29T02:40:09;98986.19;;;17.50;67.33
65718;BME280;52445;52.466;-1.016;2023-07-29T02:42:35;98988.88;;;17.49;66.49
65718;BME280;52445;52.466;-1.016;2023-07-29T02:45:03;98981.94;;;17.47;66.54
65718;BME280;52445;52.466;-1.016;2023-07-29T02:47:29;98982.00;;;17.46;67.25
65718;BME280;52445;52.466;-1.016;2023-07-29T02:49:56;98989.03;;;17.45;67.55
65718;BME280;52445;52.466;-1.016;2023-07-29T02:52:23;98993.47;;;17.43;67.25
65718;BME280;52445;52.466;-1.016;2023-07-29T02:54:49;98991.88;;;17.41;67.05
65718;BME280;52445;52.466;-1.016;2023-07-29T02:57:16;98986.69;;;17.39;67.37
65718;BME280;52445;52.466;-1.016;2023-07-29T02:59:43;98985.00;;;17.38;66.74
65718;BME280;52445;52.466;-1.016;2023-07-29T03:02:11;98993.72;;;17.39;67.37
65718;BME280;52445;52.466;-1.016;2023-07-29T03:04:37;98985.94;;;17.37;67.13
65718;BME280;52445;52.466;-1.016;2023-07-29T03:07:04;98982.53;;;17.35;67.49
65718;BME280;52445;52.466;-1.016;2023-07-29T03:09:31;98978.31;;;17.32;67.06
65718;BME280;52445;52.466;-1.016;2023-07-29T03:11:57;98986.22;;;17.31;68.29
65718;BME280;52445;52.466;-1.016;2023-07-29T03:14:25;98988.09;;;17.29;67.56
65718;BME280;52445;52.466;-1.016;2023-07-29T03:16:52;98976.81;;;17.27;68.40
65718;BME280;52445;52.466;-1.016;2023-07-29T03:19:19;98982.13;;;17.25;68.01
65718;BME280;52445;52.466;-1.016;2023-07-29T03:21:45;98982.13;;;17.25;68.02
65718;BME280;52445;52.466;-1.016;2023-07-29T03:24:12;98981.31;;;17.25;67.59
65718;BME280;52445;52.466;-1.016;2023-07-29T03:26:39;98984.81;;;17.24;67.32
65718;BME280;52445;52.466;-1.016;2023-07-29T03:29:07;98989.22;;;17.23;67.63
65718;BME280;52445;52.466;-1.016;2023-07-29T03:31:34;98979.72;;;17.20;67.87
65718;BME280;52445;52.466;-1.016;2023-07-29T03:34:00;98987.69;;;17.19;68.17
65718;BME280;52445;52.466;-1.016;2023-07-29T03:36:27;98989.50;;;17.17;68.65
65718;BME280;52445;52.466;-1.016;2023-07-29T03:38:54;98993.13;;;17.14;67.97
65718;BME280;52445;52.466;-1.016;2023-07-29T03:41:20;98978.41;;;17.12;68.01
65718;BME280;52445;52.466;-1.016;2023-07-29T03:43:47;98976.75;;;17.09;67.79
65718;BME280;52445;52.466;-1.016;2023-07-29T03:46:14;98981.25;;;17.07;67.82
65718;BME280;52445;52.466;-1.016;2023-07-29T03:48:44;98994.31;;;17.07;68.02
65718;BME280;52445;52.466;-1.016;2023-07-29T03:51:11;98987.50;;;17.03;68.10
65718;BME280;52445;52.466;-1.016;2023-07-29T03:53:37;98983.19;;;17.02;68.63
65718;BME280;52445;52.466;-1.016;2023-07-29T03:56:04;98978.88;;;17.01;68.76
65718;BME280;52445;52.466;-1.016;2023-07-29T03:58:31;98980.72;;;16.99;68.74
65718;BME280;52445;52.466;-1.016;2023-07-29T04:00:57;98979.03;;;16.98;69.00
65718;BME280;52445;52.466;-1.016;2023-07-29T04:03:24;98977.31;;;16.96;68.88
65718;BME280;52445;52.466;-1.016;2023-07-29T04:05:51;98980.84;;;16.95;68.95
65718;BME280;52445;52.466;-1.016;2023-07-29T04:08:18;98975.75;;;16.92;68.70
65718;BME280;52445;52.466;-1.016;2023-07-29T04:10:46;98977.63;;;16.90;68.65
65718;BME280;52445;52.466;-1.016;2023-07-29T04:13:12;98978.63;;;16.88;68.67
65718;BME280;52445;52.466;-1.016;2023-07-29T04:15:39;98976.97;;;16.85;69.30
65718;BME280;52445;52.466;-1.016;2023-07-29T04:18:05;98976.19;;;16.83;69.07
65718;BME280;52445;52.466;-1.016;2023-07-29T04:20:32;98977.13;;;16.82;69.35
65718;BME280;52445;52.466;-1.016;2023-07-29T04:23:00;98978.94;;;16.80;68.26
65718;BME280;52445;52.466;-1.016;2023-07-29T04:25:27;98973.78;;;16.78;69.13
65718;BME280;52445;52.466;-1.016;2023-07-29T04:27:54;98973.84;;;16.77;69.48
65718;BME280;52445;52.466;-1.016;2023-07-29T04:30:21;98979.09;;;16.77;69.05
65718;BME280;52445;52.466;-1.016;2023-07-29T04:32:48;98971.38;;;16.74;69.40
65718;BME280;52445;52.466;-1.016;2023-07-29T04:35:15;98964.47;;;16.73;69.45
65718;BME280;52445;52.466;-1.016;2023-07-29T04:37:41;98970.63;;;16.72;69.14
65718;BME280;52445;52.466;-1.016;2023-07-29T04:40:08;98971.53;;;16.70;69.11
65718;BME280;52445;52.466;-1.016;2023-07-29T04:42:36;98972.44;;;16.69;69.63
65718;BME280;52445;52.466;-1.016;2023-07-29T04:45:03;98975.06;;;16.69;69.67
65718;BME280;52445;52.466;-1.016;2023-07-29T04:47:30;98972.38;;;16.71;69.34
65718;BME280;52445;52.466;-1.016;2023-07-29T04:49:56;98970.63;;;16.72;69.07
65718;BME280;52445;52.466;-1.016;2023-07-29T04:52:23;98970.63;;;16.72;69.76
65718;BME280;52445;52.466;-1.016;2023-07-29T04:54:50;98964.47;;;16.73;69.41
65718;BME280;52445;52.466;-1.016;2023-07-29T04:57:17;98972.31;;;16.73;69.45
65718;BME280;52445;52.466;-1.016;2023-07-29T04:59:44;98968.75;;;16.74;69.05
65718;BME280;52445;52.466;-1.016;2023-07-29T05:02:10;98974.91;;;16.73;69.90
65718;BME280;52445;52.466;-1.016;2023-07-29T05:04:37;98977.53;;;16.73;69.83
65718;BME280;52445;52.466;-1.016;2023-07-29T05:07:04;98979.22;;;16.74;69.66
65718;BME280;52445;52.466;-1.016;2023-07-29T05:09:31;98980.16;;;16.73;70.00
65718;BME280;52445;52.466;-1.016;2023-07-29T05:11:58;98978.47;;;16.72;69.74
65718;BME280;52445;52.466;-1.016;2023-07-29T05:14:24;98973.22;;;16.72;69.98
65718;BME280;52445;52.466;-1.016;2023-07-29T05:16:51;98978.47;;;16.72;69.81
65718;BME280;52445;52.466;-1.016;2023-07-29T05:19:18;98979.28;;;16.72;69.28
65718;BME280;52445;52.466;-1.016;2023-07-29T05:21:44;98978.31;;;16.75;69.30
65718;BME280;52445;52.466;-1.016;2023-07-29T05:24:11;98981.69;;;16.77;69.17
65718;BME280;52445;52.466;-1.016;2023-07-29T05:26:37;98982.50;;;16.79;69.25
65718;BME280;52445;52.466;-1.016;2023-07-29T05:29:04;98986.53;;;16.86;69.80
65718;BME280;52445;52.466;-1.016;2023-07-29T05:31:31;98985.47;;;16.90;69.77
65718;BME280;52445;52.466;-1.016;2023-07-29T05:33:58;98986.94;;;16.96;69.74
65718;BME280;52445;52.466;-1.016;2023-07-29T05:36:25;98993.66;;;17.02;69.79
65718;BME280;52445;52.466;-1.016;2023-07-29T05:38:52;98992.66;;;17.04;69.29
65718;BME280;52445;52.466;-1.016;2023-07-29T05:41:19;98997.00;;;17.05;69.60
65718;BME280;52445;52.466;-1.016;2023-07-29T05:43:46;98998.72;;;17.05;69.30
65718;BME280;52445;52.466;-1.016;2023-07-29T05:46:13;98998.81;;;17.03;69.36
65718;BME280;52445;52.466;-1.016;2023-07-29T05:48:39;98994.56;;;17.01;69.45
65718;BME280;52445;52.466;-1.016;2023-07-29T05:51:06;99000.72;;;17.00;69.16
65718;BME280;52445;52.466;-1.016;2023-07-29T05:53:33;98996.34;;;17.00;68.96
65718;BME280;52445;52.466;-1.016;2023-07-29T05:55:59;98999.78;;;17.01;69.08
65718;BME280;52445;52.466;-1.016;2023-07-29T05:58:26;98993.66;;;17.02;69.70
65718;BME280;52445;52.466;-1.016;2023-07-29T06:00:53;99003.34;;;17.00;69.12
65718;BME280;52445;52.466;-1.016;2023-07-29T06:03:19;99001.50;;;17.02;69.66
65718;BME280;52445;52.466;-1.016;2023-07-29T06:05:46;99005.88;;;17.01;69.18
65718;BME280;52445;52.466;-1.016;2023-07-29T06:08:13;98997.19;;;17.01;69.20
65718;BME280;52445;52.466;-1.016;2023-07-29T06:10:40;99006.88;;;16.99;69.22
65718;BME280;52445;52.466;-1.016;2023-07-29T06:13:06;98998.25;;;16.96;70.07
65718;BME280;52445;52.466;-1.016;2023-07-29T06:15:33;98996.56;;;16.95;69.38
65718;BME280;52445;52.466;-1.016;2023-07-29T06:18:00;98997.34;;;16.98;69.59
65718;BME280;52445;52.466;-1.016;2023-07-29T06:20:26;98996.28;;;17.02;70.36
65718;BME280;52445;52.466;-1.016;2023-07-29T06:22:53;98997.03;;;17.04;69.65
65718;BME280;52445;52.466;-1.016;2023-07-29T06:25:19;99004.06;;;17.03;69.57
65718;BME280;52445;52.466;-1.016;2023-07-29T06:27:46;99005.72;;;17.06;69.76
65718;BME280;52445;52.466;-1.016;2023-07-29T06:30:13;98997.41;;;17.15;70.36
65718;BME280;52445;52.466;-1.016;2023-07-29T06:32:40;98996.69;;;17.31;70.57
65718;BME280;52445;52.466;-1.016;2023-07-29T06:35:07;99000.50;;;17.43;70.64
65718;BME280;52445;52.466;-1.016;2023-07-29T06:37:34;99005.53;;;17.65;70.69
65718;BME280;52445;52.466;-1.016;2023-07-29T06:40:01;99004.16;;;17.93;70.65
65718;BME280;52445;52.466;-1.016;2023-07-29T06:42:28;99023.75;;;18.21;71.12
65718;BME280;52445;52.466;-1.016;2023-07-29T06:44:54;99013.25;;;18.39;70.24
65718;BME280;52445;52.466;-1.016;2023-07-29T06:47:21;99015.06;;;18.55;69.67
65718;BME280;52445;52.466;-1.016;2023-07-29T06:49:48;99013.16;;;18.74;69.69
65718;BME280;52445;52.466;-1.016;2023-07-29T06:52:14;99015.91;;;18.89;69.12
65718;BME280;52445;52.466;-1.016;2023-07-29T06:54:41;99018.81;;;19.00;68.78
65718;BME280;52445;52.466;-1.016;2023-07-29T06:57:08;99012.44;;;19.05;68.41
65718;BME280;52445;52.466;-1.016;2023-07-29T06:59:34;99014.09;;;19.07;68.33
65718;BME280;52445;52.466;-1.016;2023-07-29T07:02:01;99019.25;;;19.09;67.67
65718;BME280;52445;52.466;-1.016;2023-07-29T07:04:28;99014.31;;;19.02;67.31
65718;BME280;52445;52.466;-1.016;2023-07-29T07:06:56;99019.91;;;18.96;67.74
65718;BME280;52445;52.466;-1.016;2023-07-29T07:09:23;99012.09;;;18.95;67.50
65718;BME280;52445;52.466;-1.016;2023-07-29T07:11:49;99005.59;;;19.02;67.93
65718;BME280;52445;52.466;-1.016;2023-07-29T07:14:16;99010.44;;;19.26;67.10
65718;BME280;52445;52.466;-1.016;2023-07-29T07:16:43;99014.84;;;19.42;66.76
65718;BME280;52445;52.466;-1.016;2023-07-29T07:19:10;99009.22;;;19.48;66.52
65718;BME280;52445;52.466;-1.016;2023-07-29T07:21:37;99021.59;;;19.62;66.67
65718;BME280;52445;52.466;-1.016;2023-07-29T07:24:04;99013.75;;;19.76;66.24
65718;BME280;52445;52.466;-1.016;2023-07-29T07:26:31;99010.78;;;19.83;65.91
65718;BME280;52445;52.466;-1.016;2023-07-29T07:28:57;98999.50;;;19.81;65.56
65718;BME280;52445;52.466;-1.016;2023-07-29T07:31:24;99007.78;;;19.89;65.93
65718;BME280;52445;52.466;-1.016;2023-07-29T07:33:51;99003.75;;;20.14;65.70
65718;BME280;52445;52.466;-1.016;2023-07-29T07:36:18;99005.84;;;20.38;64.93
65718;BME280;52445;52.466;-1.016;2023-07-29T07:38:44;99010.19;;;20.68;64.48
65718;BME280;52445;52.466;-1.016;2023-07-29T07:41:11;99006.03;;;21.08;65.26
65718;BME280;52445;52.466;-1.016;2023-07-29T07:43:38;99010.81;;;21.43;63.46
65718;BME280;52445;52.466;-1.016;2023-07-29T07:46:05;99008.19;;;21.70;63.02
65718;BME280;52445;52.466;-1.016;2023-07-29T07:48:32;99007.22;;;21.99;63.20
65718;BME280;52445;52.466;-1.016;2023-07-29T07:50:59;99003.22;;;22.32;61.82
65718;BME280;52445;52.466;-1.016;2023-07-29T07:53:26;98999.03;;;22.56;61.58
65718;BME280;52445;52.466;-1.016;2023-07-29T07:55:53;99007.41;;;22.87;60.33
65718;BME280;52445;52.466;-1.016;2023-07-29T07:58:20;99012.22;;;23.06;59.50
65718;BME280;52445;52.466;-1.016;2023-07-29T08:00:46;99011.78;;;23.13;59.27
65718;BME280;52445;52.466;-1.016;2023-07-29T08:03:13;99009.81;;;23.28;58.85
65718;BME280;52445;52.466;-1.016;2023-07-29T08:05:40;99016.19;;;23.25;57.85
65718;BME280;52445;52.466;-1.016;2023-07-29T08:08:06;99015.16;;;23.15;58.25
65718;BME280;52445;52.466;-1.016;2023-07-29T08:10:33;99018.75;;;23.14;57.55
65718;BME280;52445;52.466;-1.016;2023-07-29T08:13:00;99014.88;;;23.06;57.43
65718;BME280;52445;52.466;-1.016;2023-07-29T08:15:27;99011.38;;;23.06;57.42
65718;BME280;52445;52.466;-1.016;2023-07-29T08:17:53;99017.63;;;22.92;57.09
65718;BME280;52445;52.466;-1.016;2023-07-29T08:20:20;99014.06;;;22.93;57.18
65718;BME280;52445;52.466;-1.016;2023-07-29T08:22:47;99010.81;;;23.14;56.93
65718;BME280;52445;52.466;-1.016;2023-07-29T08:25:14;99005.03;;;23.46;56.48
65718;BME280;52445;52.466;-1.016;2023-07-29T08:27:41;99005.16;;;23.80;56.51
65718;BME280;52445;52.466;-1.016;2023-07-29T08:30:08;98995.19;;;24.20;56.44
65718;BME280;52445;52.466;-1.016;2023-07-29T08:32:36;98996.78;;;24.57;55.94
65718;BME280;52445;52.466;-1.016;2023-07-29T08:35:03;98998.81;;;24.76;54.66
65718;BME280;52445;52.466;-1.016;2023-07-29T08:37:30;98999.41;;;24.68;54.71
65718;BME280;52445;52.466;-1.016;2023-07-29T08:39:57;98995.34;;;24.52;54.13
65718;BME280;52445;52.466;-1.016;2023-07-29T08:42:29;99004.81;;;24.32;53.82
65718;BME280;52445;52.466;-1.016;2023-07-29T08:45:06;99000.00;;;24.15;54.06
65718;BME280;52445;52.466;-1.016;2023-07-29T08:47:34;99003.78;;;23.99;54.02
65718;BME280;52445;52.466;-1.016;2023-07-29T08:50:03;99001.09;;;23.87;54.26
65718;BME280;52445;52.466;-1.016;2023-07-29T08:52:30;99004.66;;;23.75;54.12
65718;BME280;52445;52.466;-1.016;2023-07-29T08:54:58;99004.41;;;23.67;54.19
65718;BME280;52445;52.466;-1.016;2023-07-29T08:57:26;99002.66;;;23.54;53.88
65718;BME280;52445;52.466;-1.016;2023-07-29T08:59:53;99005.59;;;23.38;53.72
65718;BME280;52445;52.466;-1.016;2023-07-29T09:02:22;99014.25;;;23.27;54.04
65718;BME280;52445;52.466;-1.016;2023-07-29T09:04:51;99005.53;;;23.14;54.04
65718;BME280;52445;52.466;-1.016;2023-07-29T09:07:20;99005.47;;;23.02;53.46
65718;BME280;52445;52.466;-1.016;2023-07-29T09:09:48;99000.88;;;22.93;53.74
65718;BME280;52445;52.466;-1.016;2023-07-29T09:12:15;99008.69;;;22.81;54.38
65718;BME280;52445;52.466;-1.016;2023-07-29T09:14:42;99003.63;;;22.78;54.50
65718;BME280;52445;52.466;-1.016;2023-07-29T09:17:12;99013.75;;;22.84;54.78
65718;BME280;52445;52.466;-1.016;2023-07-29T09:19:39;99001.41;;;23.22;55.10
65718;BME280;52445;52.466;-1.016;2023-07-29T09:22:17;99004.00;;;23.60;55.11
65718;BME280;52445;52.466;-1.016;2023-07-29T09:24:45;99009.16;;;23.86;53.78
65718;BME280;52445;52.466;-1.016;2023-07-29T09:27:28;99004.84;;;23.96;53.96
65718;BME280;52445;52.466;-1.016;2023-07-29T09:29:57;99004.38;;;24.03;53.27
65718;BME280;52445;52.466;-1.016;2023-07-29T09:32:25;99003.28;;;23.94;52.38
65718;BME280;52445;52.466;-1.016;2023-07-29T09:34:52;99008.28;;;23.85;52.70
65718;BME280;52445;52.466;-1.016;2023-07-29T09:37:21;99013.72;;;23.84;52.77
65718;BME280;52445;52.466;-1.016;2023-07-29T09:39:49;99010.00;;;23.86;52.92
65718;BME280;52445;52.466;-1.016;2023-07-29T09:42:21;99008.91;;;23.89;52.94
65718;BME280;52445;52.466;-1.016;2023-07-29T09:44:50;99018.03;;;23.85;52.58
65718;BME280;52445;52.466;-1.016;2023-07-29T09:47:19;99019.56;;;23.76;52.31
65718;BME280;52445;52.466;-1.016;2023-07-29T09:49:47;99013.34;;;23.88;53.57
65718;BME280;52445;52.466;-1.016;2023-07-29T09:52:15;99006.25;;;24.13;53.18
65718;BME280;52445;52.466;-1.016;2023-07-29T09:54:44;99015.56;;;24.42;53.04
65718;BME280;52445;52.466;-1.016;2023-07-29T09:57:12;99014.34;;;24.69;52.49
65718;BME280;52445;52.466;-1.016;2023-07-29T09:59:40;99011.47;;;24.95;52.23
65718;BME280;52445;52.466;-1.016;2023-07-29T10:02:13;99013.94;;;25.20;51.85
65718;BME280;52445;52.466;-1.016;2023-07-29T10:04:41;99014.03;;;25.29;50.44
65718;BME280;52445;52.466;-1.016;2023-07-29T10:07:10;99020.78;;;25.34;51.15
65718;BME280;52445;52.466;-1.016;2023-07-29T10:09:38;99022.13;;;25.28;50.34
65718;BME280;52445;52.466;-1.016;2023-07-29T10:12:06;99024.56;;;25.20;50.68
65718;BME280;52445;52.466;-1.016;2023-07-29T10:14:33;99027.91;;;25.22;50.81
65718;BME280;52445;52.466;-1.016;2023-07-29T10:17:00;99029.38;;;25.26;50.09
65718;BME280;52445;52.466;-1.016;2023-07-29T10:19:27;99029.63;;;25.11;50.28
65718;BME280;52445;52.466;-1.016;2023-07-29T10:21:56;99039.63;;;24.96;50.26
65718;BME280;52445;52.466;-1.016;2023-07-29T10:24:29;99034.91;;;24.77;49.69
65718;BME280;52445;52.466;-1.016;2023-07-29T10:26:59;99036.13;;;24.61;50.32
65718;BME280;52445;52.466;-1.016;2023-07-29T10:29:30;99031.28;;;24.44;50.79
65718;BME280;52445;52.466;-1.016;2023-07-29T10:32:02;99025.97;;;24.32;50.70
65718;BME280;52445;52.466;-1.016;2023-07-29T10:34:31;99018.88;;;24.21;51.41
65718;BME280;52445;52.466;-1.016;2023-07-29T10:36:58;99030.31;;;24.22;51.84
65718;BME280;52445;52.466;-1.016;2023-07-29T10:39:26;99035.41;;;24.36;52.08
65718;BME280;52445;52.466;-1.016;2023-07-29T10:41:56;99036.13;;;24.50;52.02
65718;BME280;52445;52.466;-1.016;2023-07-29T10:50:00;99043.84;;;24.64;51.86
65718;BME280;52445;52.466;-1.016;2023-07-29T11:00:47;99037.00;;;25.40;51.34
65718;BME280;52445;52.466;-1.016;2023-07-29T11:03:17;99041.22;;;25.43;49.97
65718;BME280;52445;52.466;-1.016;2023-07-29T11:05:46;99031.47;;;25.44;51.22
65718;BME280;52445;52.466;-1.016;2023-07-29T11:08:30;99038.41;;;25.67;51.24
65718;BME280;52445;52.466;-1.016;2023-07-29T11:11:03;99033.25;;;25.87;50.49
65718;BME280;52445;52.466;-1.016;2023-07-29T11:13:34;99040.91;;;26.02;49.88
65718;BME280;52445;52.466;-1.016;2023-07-29T11:16:04;99042.06;;;26.09;49.09
65718;BME280;52445;52.466;-1.016;2023-07-29T11:18:39;99047.88;;;26.03;48.70
65718;BME280;52445;52.466;-1.016;2023-07-29T11:21:12;99039.78;;;25.83;48.00
65718;BME280;52445;52.466;-1.016;2023-07-29T11:23:44;99036.22;;;25.73;47.84
65718;BME280;52445;52.466;-1.016;2023-07-29T11:26:12;99031.25;;;25.79;48.72
65718;BME280;52445;52.466;-1.016;2023-07-29T11:28:41;99038.91;;;25.94;47.90
65718;BME280;52445;52.466;-1.016;2023-07-29T11:31:08;99041.16;;;25.99;47.86
65718;BME280;52445;52.466;-1.016;2023-07-29T11:33:35;99040.59;;;25.95;46.55
65718;BME280;52445;52.466;-1.016;2023-07-29T11:36:02;99043.03;;;25.87;46.58
65718;BME280;52445;52.466;-1.016;2023-07-29T11:38:35;99047.66;;;25.73;46.69
65718;BME280;52445;52.466;-1.016;2023-07-29T11:41:09;99044.47;;;25.58;46.04
65718;BME280;52445;52.466;-1.016;2023-07-29T11:43:35;99047.13;;;25.47;46.00
65718;BME280;52445;52.466;-1.016;2023-07-29T11:46:03;99048.97;;;25.35;45.64
65718;BME280;52445;52.466;-1.016;2023-07-29T11:48:32;99061.66;;;25.20;45.83
65718;BME280;52445;52.466;-1.016;2023-07-29T11:51:03;99055.38;;;25.09;45.96
65718;BME280;52445;52.466;-1.016;2023-07-29T11:53:31;99058.53;;;25.03;45.68
65718;BME280;52445;52.466;-1.016;2023-07-29T11:55:58;99058.78;;;25.00;45.94
65718;BME280;52445;52.466;-1.016;2023-07-29T11:58:26;99063.00;;;25.02;46.37
65718;BME280;52445;52.466;-1.016;2023-07-29T12:00:53;99061.44;;;25.00;46.49
65718;BME280;52445;52.466;-1.016;2023-07-29T12:03:20;99066.97;;;24.97;46.11
65718;BME280;52445;52.466;-1.016;2023-07-29T12:05:48;99071.41;;;24.96;46.15
65718;BME280;52445;52.466;-1.016;2023-07-29T12:08:15;99069.59;;;25.08;46.89
65718;BME280;52445;52.466;-1.016;2023-07-29T12:10:42;99070.91;;;25.25;46.96
65718;BME280;52445;52.466;-1.016;2023-07-29T12:13:09;99063.41;;;25.31;46.16
65718;BME280;52445;52.466;-1.016;2023-07-29T12:15:38;99064.97;;;25.33;46.44
65718;BME280;52445;52.466;-1.016;2023-07-29T12:18:09;99063.41;;;25.42;46.63
65718;BME280;52445;52.466;-1.016;2023-07-29T12:20:37;99067.22;;;25.49;46.40
65718;BME280;52445;52.466;-1.016;2023-07-29T12:23:05;99064.72;;;25.59;46.87
65718;BME280;52445;52.466;-1.016;2023-07-29T12:25:34;99058.91;;;25.65;46.71
65718;BME280;52445;52.466;-1.016;2023-07-29T12:28:03;99066.63;;;25.69;47.11
65718;BME280;52445;52.466;-1.016;2023-07-29T12:30:30;99065.53;;;25.71;46.54
65718;BME280;52445;52.466;-1.016;2023-07-29T12:32:57;99070.47;;;25.64;46.87
65718;BME280;52445;52.466;-1.016;2023-07-29T12:35:24;99064.91;;;25.67;47.17
65718;BME280;52445;52.466;-1.016;2023-07-29T12:38:00;99063.00;;;25.70;47.29
65718;BME280;52445;52.466;-1.016;2023-07-29T12:40:27;99061.91;;;25.72;46.98
65718;BME280;52445;52.466;-1.016;2023-07-29T12:42:54;99063.97;;;25.69;47.04
65718;BME280;52445;52.466;-1.016;2023-07-29T12:45:21;99053.56;;;25.77;48.04
65718;BME280;52445;52.466;-1.016;2023-07-29T12:47:53;99062.06;;;25.92;47.91
65718;BME280;52445;52.466;-1.016;2023-07-29T12:50:23;99062.13;;;26.02;47.50
65718;BME280;52445;52.466;-1.016;2023-07-29T12:52:49;99067.69;;;25.99;46.77
65718;BME280;52445;52.466;-1.016;2023-07-29T12:55:16;99062.81;;;25.83;46.55
65718;BME280;52445;52.466;-1.016;2023-07-29T12:57:47;99069.00;;;25.72;46.81
65718;BME280;52445;52.466;-1.016;2023-07-29T13:00:14;99065.13;;;25.76;46.87
65718;BME280;52445;52.466;-1.016;2023-07-29T13:02:40;99065.59;;;25.81;46.72
65718;BME280;52445;52.466;-1.016;2023-07-29T13:05:10;99066.66;;;25.90;47.13
65718;BME280;52445;52.466;-1.016;2023-07-29T13:07:40;99060.94;;;25.95;45.54
65718;BME280;52445;52.466;-1.016;2023-07-29T13:10:08;99060.19;;;26.04;46.92
65718;BME280;52445;52.466;-1.016;2023-07-29T13:12:35;99072.06;;;26.21;47.09